Terminal Aerodrome Forecast
Issued by NWS

Home | Current Version | Previous Version | Text Only | Print | Product List | Glossary On
Versions: 1 2 3 4 5 6 7 8 9 10 11 12
000
FTUS45 KREV 242300
TAFMMH
TAF
KMMH 242320Z 2500/2524 24028G45KT P6SM SCT100 BKN150
     FM250200 27018G30KT 2SM -SN OVC010
     FM250600 29015G25KT P6SM VCSH OVC020
     FM250900 33008KT P6SM FEW100
      AMD NOT SKED 2502/2514=

USA.gov is the U.S. government's official web portal to all federal, state and local government web resources and services.